createdAt,value
2017-09-23T00:00:40.983Z,55.00
2017-09-23T00:03:07.666Z,51.70
2017-09-23T00:05:34.323Z,54.47
2017-09-23T00:08:00.958Z,57.20
2017-09-23T00:10:27.575Z,54.23
2017-09-23T00:12:54.195Z,52.80
2017-09-23T00:15:20.835Z,53.20
2017-09-23T00:17:47.463Z,55.97
2017-09-23T00:20:14.091Z,56.23
2017-09-23T00:22:40.732Z,56.53
2017-09-23T00:25:07.378Z,52.20
2017-09-23T00:27:34.015Z,52.87
2017-09-23T00:30:00.647Z,53.50
2017-09-23T00:32:27.280Z,55.60
2017-09-23T00:34:53.890Z,55.20
2017-09-23T00:37:20.535Z,57.03
2017-09-23T00:39:47.163Z,56.50
2017-09-23T00:42:13.786Z,56.93
2017-09-23T00:44:40.430Z,56.83
2017-09-23T00:47:07.051Z,53.20
2017-09-23T00:49:33.686Z,54.10
2017-09-23T00:52:00.311Z,53.60
2017-09-23T00:54:26.954Z,55.57
2017-09-23T00:56:53.561Z,52.77
2017-09-23T00:59:20.201Z,60.00
2017-09-23T01:01:46.849Z,53.93
2017-09-23T01:04:13.471Z,53.83
2017-09-23T01:06:40.103Z,54.93
2017-09-23T01:09:06.747Z,57.60
2017-09-23T01:11:33.371Z,57.97
2017-09-23T01:14:00.021Z,64.60
2017-09-23T01:16:26.646Z,56.90
2017-09-23T01:18:53.266Z,57.50
2017-09-23T01:21:19.930Z,58.87
2017-09-23T01:23:46.558Z,56.20
2017-09-23T01:26:13.201Z,55.90
2017-09-23T01:28:39.818Z,52.07
2017-09-23T01:31:06.446Z,52.93
2017-09-23T01:33:33.063Z,56.50
2017-09-23T01:35:59.704Z,54.03
2017-09-23T01:38:26.319Z,52.03
2017-09-23T01:40:52.955Z,52.47
2017-09-23T01:43:19.594Z,49.90
2017-09-23T01:45:46.229Z,53.80
2017-09-23T01:48:12.875Z,54.33
2017-09-23T01:50:39.499Z,53.83
2017-09-23T01:53:06.131Z,55.77
2017-09-23T01:55:32.754Z,57.47
2017-09-23T01:57:59.411Z,59.57
2017-09-23T02:00:26.051Z,56.33
2017-09-23T02:02:52.675Z,58.67
2017-09-23T02:05:19.327Z,58.03
2017-09-23T02:07:45.942Z,60.73
2017-09-23T02:10:12.571Z,60.60
2017-09-23T02:12:39.216Z,62.50
2017-09-23T02:15:05.857Z,59.87
2017-09-23T02:17:32.500Z,54.47
2017-09-23T02:19:59.127Z,61.77
2017-09-23T02:22:25.790Z,59.23
2017-09-23T02:24:52.410Z,63.70
2017-09-23T02:27:19.063Z,60.67
2017-09-23T02:29:45.692Z,63.77
2017-09-23T02:32:12.306Z,59.17
2017-09-23T02:34:38.939Z,57.67
2017-09-23T02:37:05.576Z,58.13
2017-09-23T02:39:32.210Z,60.50
2017-09-23T02:41:58.824Z,59.20
2017-09-23T02:44:25.678Z,58.37
2017-09-23T02:46:53.766Z,57.30
2017-09-23T02:49:20.425Z,68.57
2017-09-23T02:51:47.052Z,61.27
2017-09-23T02:54:13.679Z,62.50
2017-09-23T02:56:40.327Z,61.07
2017-09-23T02:59:06.938Z,63.03
2017-09-23T03:01:33.583Z,64.10
2017-09-23T03:04:00.229Z,62.93
2017-09-23T03:06:26.891Z,61.60
2017-09-23T03:08:53.591Z,66.73
2017-09-23T03:11:20.220Z,68.10
2017-09-23T03:13:46.870Z,66.43
2017-09-23T03:16:13.491Z,70.80
2017-09-23T03:18:40.122Z,70.80
2017-09-23T03:21:06.774Z,69.93
2017-09-23T03:23:33.398Z,69.30
2017-09-23T03:26:00.034Z,71.03
2017-09-23T03:28:26.691Z,64.20
2017-09-23T03:30:53.553Z,64.30
2017-09-23T03:33:20.217Z,64.07
2017-09-23T03:35:46.859Z,69.23
2017-09-23T03:38:13.475Z,65.93
2017-09-23T03:40:40.097Z,63.40
2017-09-23T03:43:06.746Z,69.67
2017-09-23T03:45:33.392Z,61.30
2017-09-23T03:48:00.053Z,67.67
2017-09-23T03:50:26.691Z,68.60
2017-09-23T03:52:53.306Z,65.47
2017-09-23T03:55:19.978Z,62.63
2017-09-23T03:57:46.646Z,67.90
2017-09-23T04:00:13.307Z,69.00
2017-09-23T04:02:39.936Z,69.13
2017-09-23T04:05:06.585Z,66.40
2017-09-23T04:07:33.215Z,72.03
2017-09-23T04:09:59.860Z,67.40
2017-09-23T04:12:26.475Z,67.57
2017-09-23T04:14:53.099Z,66.90
2017-09-23T04:17:19.739Z,65.10
2017-09-23T04:19:46.382Z,61.37
2017-09-23T04:22:13.498Z,64.03
2017-09-23T04:24:40.219Z,65.03
2017-09-23T04:27:06.846Z,65.80
2017-09-23T04:29:33.467Z,62.20
2017-09-23T04:32:00.099Z,67.17
2017-09-23T04:34:26.723Z,68.17
2017-09-23T04:36:53.358Z,64.73
2017-09-23T04:39:20.006Z,64.10
2017-09-23T04:41:46.680Z,64.87
2017-09-23T04:44:13.321Z,62.63
2017-09-23T04:46:39.955Z,59.23
2017-09-23T04:49:06.586Z,63.93
2017-09-23T04:51:33.215Z,62.00
2017-09-23T04:53:59.851Z,65.90
2017-09-23T04:56:26.497Z,64.17
2017-09-23T04:58:53.116Z,64.33
2017-09-23T05:01:19.767Z,62.10
2017-09-23T05:03:46.389Z,60.20
2017-09-23T05:06:13.034Z,62.67
2017-09-23T05:08:39.682Z,62.63
2017-09-23T05:11:06.307Z,62.50
2017-09-23T05:13:32.944Z,61.97
2017-09-23T05:15:59.596Z,59.70
2017-09-23T05:18:26.231Z,61.67
2017-09-23T05:20:52.872Z,69.57
2017-09-23T05:23:19.498Z,60.00
2017-09-23T05:25:46.145Z,63.07
2017-09-23T05:28:12.771Z,59.53
2017-09-23T05:30:41.302Z,54.87
2017-09-23T05:33:09.432Z,58.47
2017-09-23T05:35:36.086Z,59.70
2017-09-23T05:38:02.718Z,60.17
2017-09-23T05:40:29.343Z,54.10
2017-09-23T05:42:55.978Z,55.37
2017-09-23T05:45:22.607Z,52.70
2017-09-23T05:47:49.238Z,56.50
2017-09-23T05:50:15.882Z,53.63
2017-09-23T05:52:42.521Z,56.30
2017-09-23T05:55:09.210Z,48.77
2017-09-23T05:57:35.807Z,49.77
2017-09-23T06:00:02.451Z,51.67
2017-09-23T06:02:29.131Z,55.77
2017-09-23T06:04:55.734Z,52.03
2017-09-23T06:07:22.403Z,53.30
2017-09-23T06:09:49.014Z,54.43
2017-09-23T06:12:15.651Z,50.90
2017-09-23T06:14:42.286Z,55.23
2017-09-23T06:17:08.901Z,56.17
2017-09-23T06:19:35.541Z,55.50
2017-09-23T06:22:02.183Z,50.73
2017-09-23T06:24:28.823Z,54.80
2017-09-23T06:26:55.450Z,48.37
2017-09-23T06:29:22.082Z,48.70
2017-09-23T06:31:48.699Z,51.33
2017-09-23T06:34:15.347Z,52.70
2017-09-23T06:36:41.972Z,50.40
2017-09-23T06:39:08.623Z,54.20
2017-09-23T06:41:35.288Z,52.67
2017-09-23T06:44:01.920Z,49.77
2017-09-23T06:46:28.547Z,55.20
2017-09-23T06:48:55.208Z,54.80
2017-09-23T06:51:21.836Z,54.37
2017-09-23T06:53:48.458Z,56.13
2017-09-23T06:56:15.089Z,56.37
2017-09-23T06:58:41.722Z,59.50
2017-09-23T07:01:08.342Z,56.97
2017-09-23T07:03:34.999Z,56.80
2017-09-23T07:06:01.623Z,55.13
2017-09-23T07:08:28.236Z,54.70
2017-09-23T07:10:54.878Z,56.97
2017-09-23T07:13:21.504Z,52.67
2017-09-23T07:15:48.166Z,54.10
2017-09-23T07:18:14.784Z,54.10
2017-09-23T07:20:41.446Z,56.37
2017-09-23T07:23:08.087Z,54.87
2017-09-23T07:25:34.769Z,50.93
2017-09-23T07:28:01.439Z,51.13
2017-09-23T07:30:28.053Z,53.43
2017-09-23T07:32:54.690Z,56.80
2017-09-23T07:35:21.309Z,45.30
2017-09-23T07:37:47.962Z,44.97
2017-09-23T07:40:14.583Z,47.53
2017-09-23T07:42:41.231Z,45.73
2017-09-23T07:45:07.888Z,46.70
2017-09-23T07:47:34.502Z,44.93
2017-09-23T07:50:01.119Z,43.00
2017-09-23T07:52:27.763Z,43.20
2017-09-23T07:54:54.387Z,38.67
2017-09-23T07:57:21.074Z,43.83
2017-09-23T07:59:47.720Z,42.23
2017-09-23T08:02:14.343Z,41.60
2017-09-23T08:04:41.028Z,41.30
2017-09-23T08:07:07.646Z,39.53
2017-09-23T08:09:34.279Z,45.30
2017-09-23T08:12:00.894Z,45.60
2017-09-23T08:14:27.527Z,41.50
2017-09-23T08:16:54.162Z,42.73
2017-09-23T08:19:20.795Z,41.27
2017-09-23T08:21:47.441Z,42.90
2017-09-23T08:24:14.115Z,45.17
2017-09-23T08:26:40.743Z,47.13
2017-09-23T08:29:07.409Z,44.70
2017-09-23T08:31:34.043Z,38.90
2017-09-23T08:34:00.686Z,41.03
2017-09-23T08:36:27.326Z,38.40
2017-09-23T08:38:53.961Z,38.33
2017-09-23T08:41:20.603Z,37.87
2017-09-23T08:43:47.235Z,37.93
2017-09-23T08:46:13.875Z,42.00
2017-09-23T08:48:40.508Z,42.20
2017-09-23T08:51:07.157Z,38.10
2017-09-23T08:53:33.814Z,40.00
2017-09-23T08:56:00.508Z,37.50
2017-09-23T08:58:27.139Z,37.20
2017-09-23T09:00:53.786Z,38.67
2017-09-23T09:03:20.431Z,39.97
2017-09-23T09:05:47.076Z,37.93
2017-09-23T09:08:13.721Z,38.47
2017-09-23T09:10:40.378Z,39.20
2017-09-23T09:13:07.014Z,41.13
2017-09-23T09:15:33.647Z,40.80
2017-09-23T09:18:00.274Z,38.93
2017-09-23T09:20:26.919Z,39.03
2017-09-23T09:22:53.571Z,36.50
2017-09-23T09:25:20.190Z,36.43
2017-09-23T09:27:46.824Z,37.30
2017-09-23T09:30:13.456Z,37.00
2017-09-23T09:32:40.088Z,36.93
2017-09-23T09:35:06.748Z,35.93
2017-09-23T09:37:33.396Z,36.13
2017-09-23T09:40:00.059Z,32.07
2017-09-23T09:42:26.674Z,34.10
2017-09-23T09:44:53.430Z,32.97
2017-09-23T09:47:20.075Z,35.03
2017-09-23T09:49:46.727Z,34.63
2017-09-23T09:52:13.363Z,35.80
2017-09-23T09:54:40.032Z,33.97
2017-09-23T09:57:06.656Z,33.90
2017-09-23T09:59:33.279Z,37.20
2017-09-23T10:01:59.914Z,32.67
2017-09-23T10:04:26.551Z,33.10
2017-09-23T10:06:53.194Z,31.17
2017-09-23T10:09:19.815Z,32.63
2017-09-23T10:11:46.464Z,32.57
2017-09-23T10:14:13.087Z,30.87
2017-09-23T10:16:39.772Z,29.97
2017-09-23T10:19:06.436Z,30.00
2017-09-23T10:21:33.068Z,28.90
2017-09-23T10:23:59.710Z,29.53
2017-09-23T10:26:26.717Z,30.33
2017-09-23T10:28:53.353Z,29.30
2017-09-23T10:31:20.011Z,31.93
2017-09-23T10:33:46.628Z,30.53
2017-09-23T10:36:13.260Z,29.87
2017-09-23T10:38:39.907Z,30.23
2017-09-23T10:41:06.530Z,30.57
2017-09-23T10:43:33.201Z,29.37
2017-09-23T10:45:59.840Z,29.77
2017-09-23T10:48:26.488Z,28.50
2017-09-23T10:50:53.101Z,29.23
2017-09-23T10:53:19.737Z,29.77
2017-09-23T10:55:46.397Z,29.97
2017-09-23T10:58:13.027Z,28.07
2017-09-23T11:00:39.659Z,28.00
2017-09-23T11:03:06.319Z,26.50
2017-09-23T11:05:32.953Z,26.30
2017-09-23T11:07:59.605Z,26.23
2017-09-23T11:10:26.246Z,29.13
2017-09-23T11:12:52.904Z,28.27
2017-09-23T11:15:19.511Z,29.03
2017-09-23T11:17:46.146Z,25.97
2017-09-23T11:20:12.783Z,27.20
2017-09-23T11:22:39.423Z,24.60
2017-09-23T11:25:06.057Z,27.70
2017-09-23T11:27:32.706Z,31.90
2017-09-23T11:29:59.343Z,29.17
2017-09-23T11:32:25.956Z,29.67
2017-09-23T11:34:52.594Z,30.37
2017-09-23T11:37:19.253Z,32.00
2017-09-23T11:39:45.885Z,30.67
2017-09-23T11:42:12.497Z,31.20
2017-09-23T11:44:39.148Z,27.60
2017-09-23T11:47:05.781Z,24.57
2017-09-23T11:49:32.441Z,27.00
2017-09-23T11:51:59.076Z,28.10
2017-09-23T11:54:25.688Z,28.80
2017-09-23T11:56:52.342Z,26.40
2017-09-23T11:59:18.987Z,28.83
2017-09-23T12:01:45.608Z,28.03
2017-09-23T12:04:12.268Z,26.33
2017-09-23T12:06:38.911Z,29.30
2017-09-23T12:09:05.590Z,30.40
2017-09-23T12:11:32.204Z,30.60
2017-09-23T12:13:58.839Z,30.10
2017-09-23T12:16:25.485Z,26.63
2017-09-23T12:18:52.115Z,24.80
2017-09-23T12:21:18.755Z,25.57
2017-09-23T12:23:45.396Z,26.20
2017-09-23T12:26:12.049Z,27.00
2017-09-23T12:28:38.681Z,25.23
2017-09-23T12:31:05.340Z,27.70
2017-09-23T12:33:31.993Z,27.50
2017-09-23T12:35:58.617Z,25.27
2017-09-23T12:38:25.267Z,27.33
2017-09-23T12:40:51.887Z,27.07
2017-09-23T12:43:18.506Z,26.30
2017-09-23T12:45:45.162Z,28.43
2017-09-23T12:48:11.799Z,25.53
2017-09-23T12:50:38.428Z,25.93
2017-09-23T12:53:05.072Z,23.47
2017-09-23T12:55:31.729Z,23.93
2017-09-23T12:57:58.381Z,25.43
2017-09-23T13:00:24.999Z,24.87
2017-09-23T13:02:51.648Z,23.90
2017-09-23T13:05:18.309Z,25.00
2017-09-23T13:07:44.947Z,23.17
2017-09-23T13:10:11.603Z,23.90
2017-09-23T13:12:38.230Z,26.17
2017-09-23T13:15:04.842Z,26.97
2017-09-23T13:17:31.520Z,24.57
2017-09-23T13:19:58.143Z,25.60
2017-09-23T13:22:24.811Z,24.83
2017-09-23T13:24:51.437Z,24.43
2017-09-23T13:27:18.096Z,23.50
2017-09-23T13:29:44.723Z,22.93
2017-09-23T13:32:11.353Z,24.97
2017-09-23T13:34:38.000Z,23.13
2017-09-23T13:37:04.645Z,22.60
2017-09-23T13:39:31.291Z,23.90
2017-09-23T13:41:57.931Z,22.43
2017-09-23T13:44:24.567Z,22.87
2017-09-23T13:46:51.229Z,22.30
2017-09-23T13:49:17.856Z,23.07
2017-09-23T13:51:44.503Z,22.60
2017-09-23T13:54:11.141Z,21.70
2017-09-23T13:56:37.780Z,22.30
2017-09-23T13:59:04.414Z,22.93
2017-09-23T14:01:31.068Z,23.67
2017-09-23T14:03:57.705Z,23.53
2017-09-23T14:06:24.383Z,21.53
2017-09-23T14:08:51.010Z,22.43
2017-09-23T14:11:17.657Z,23.70
2017-09-23T14:13:44.302Z,23.63
2017-09-23T14:16:10.951Z,23.70
2017-09-23T14:18:37.595Z,23.27
2017-09-23T14:21:04.261Z,22.70
2017-09-23T14:23:30.890Z,22.90
2017-09-23T14:25:57.548Z,23.23
2017-09-23T14:28:24.188Z,20.03
2017-09-23T14:30:50.803Z,24.20
2017-09-23T14:33:17.445Z,22.57
2017-09-23T14:35:44.092Z,20.77
2017-09-23T14:38:10.728Z,22.60
2017-09-23T14:40:37.382Z,24.00
2017-09-23T14:43:04.026Z,22.10
2017-09-23T14:45:30.675Z,21.37
2017-09-23T14:47:57.326Z,23.30
2017-09-23T14:50:23.953Z,21.83
2017-09-23T14:52:50.598Z,24.00
2017-09-23T14:55:17.243Z,24.00
2017-09-23T14:57:43.864Z,26.03
2017-09-23T15:00:10.512Z,24.70
2017-09-23T15:02:37.189Z,24.13
2017-09-23T15:05:03.820Z,22.50
2017-09-23T15:07:30.463Z,18.77
2017-09-23T15:09:57.115Z,19.37
2017-09-23T15:12:23.724Z,19.80
2017-09-23T15:14:50.373Z,20.37
2017-09-23T15:17:17.002Z,16.00
2017-09-23T15:19:43.670Z,18.90
2017-09-23T15:22:10.320Z,19.20
2017-09-23T15:24:36.963Z,18.67
2017-09-23T15:27:03.589Z,18.73
2017-09-23T15:29:30.217Z,19.70
2017-09-23T15:31:56.863Z,19.73
2017-09-23T15:34:23.491Z,20.53
2017-09-23T15:36:50.118Z,20.43
2017-09-23T15:39:16.775Z,19.50
2017-09-23T15:41:43.430Z,19.37
2017-09-23T15:44:10.040Z,19.80
2017-09-23T15:46:36.725Z,19.53
2017-09-23T15:49:03.361Z,21.00
2017-09-23T15:51:29.983Z,17.93
2017-09-23T15:53:56.631Z,20.17
2017-09-23T15:56:23.259Z,20.70
2017-09-23T15:58:49.920Z,19.73
2017-09-23T16:01:16.555Z,23.70
2017-09-23T16:03:43.188Z,22.10
2017-09-23T16:06:09.832Z,21.30
2017-09-23T16:08:36.440Z,20.80
2017-09-23T16:11:03.076Z,21.43
2017-09-23T16:13:29.719Z,22.17
2017-09-23T16:15:56.367Z,19.43
2017-09-23T16:18:22.999Z,22.20
2017-09-23T16:20:49.631Z,20.87
2017-09-23T16:23:16.296Z,21.47
2017-09-23T16:25:42.915Z,20.60
2017-09-23T16:28:09.563Z,21.60
2017-09-23T16:30:36.197Z,20.33
2017-09-23T16:33:02.807Z,20.10
2017-09-23T16:35:29.467Z,20.73
2017-09-23T16:37:56.136Z,22.03
2017-09-23T16:40:22.755Z,22.70
2017-09-23T16:42:49.419Z,21.10
2017-09-23T16:45:16.048Z,22.23
2017-09-23T16:47:42.707Z,21.13
2017-09-23T16:50:09.350Z,20.93
2017-09-23T16:52:35.960Z,20.23
2017-09-23T16:55:02.630Z,21.20
2017-09-23T16:57:29.258Z,20.90
2017-09-23T16:59:55.931Z,22.47
2017-09-23T17:02:22.564Z,21.40
2017-09-23T17:04:49.200Z,20.83
2017-09-23T17:07:15.869Z,21.37
2017-09-23T17:09:43.032Z,22.73
2017-09-23T17:12:09.689Z,21.40
2017-09-23T17:14:36.320Z,23.87
2017-09-23T17:17:02.969Z,22.67
2017-09-23T17:19:29.651Z,20.47
2017-09-23T17:21:56.278Z,21.87
2017-09-23T17:24:22.915Z,22.13
2017-09-23T17:26:49.535Z,23.47
2017-09-23T17:29:16.159Z,23.50
2017-09-23T17:31:42.787Z,23.73
2017-09-23T17:34:09.586Z,24.70
2017-09-23T17:36:36.242Z,22.57
2017-09-23T17:39:02.860Z,25.20
2017-09-23T17:41:29.504Z,24.33
2017-09-23T17:43:56.134Z,23.40
2017-09-23T17:46:22.774Z,24.37
2017-09-23T17:48:49.433Z,24.10
2017-09-23T17:51:16.073Z,24.33
2017-09-23T17:53:42.728Z,25.90
2017-09-23T17:56:09.348Z,27.40
2017-09-23T17:58:36.007Z,24.63
2017-09-23T18:01:02.658Z,24.53
2017-09-23T18:03:29.271Z,25.47
2017-09-23T18:05:55.963Z,25.10
2017-09-23T18:08:22.624Z,27.07
2017-09-23T18:10:49.262Z,26.27
2017-09-23T18:13:15.888Z,27.30
2017-09-23T18:15:42.512Z,27.80
2017-09-23T18:18:09.185Z,26.57
2017-09-23T18:20:35.835Z,25.70
2017-09-23T18:23:02.459Z,26.50
2017-09-23T18:25:29.123Z,27.00
2017-09-23T18:27:55.787Z,27.17
2017-09-23T18:30:22.403Z,25.40
2017-09-23T18:32:49.079Z,26.00
2017-09-23T18:35:15.727Z,27.50
2017-09-23T18:37:42.369Z,25.20
2017-09-23T18:40:09.824Z,26.73
2017-09-23T18:42:36.484Z,28.37
2017-09-23T18:45:03.156Z,23.80
2017-09-23T18:47:29.771Z,26.30
2017-09-23T18:49:56.388Z,23.60
2017-09-23T18:52:23.068Z,25.57
2017-09-23T18:54:49.692Z,23.27
2017-09-23T18:57:16.364Z,23.47
2017-09-23T18:59:43.853Z,28.20
2017-09-23T19:02:10.480Z,25.50
2017-09-23T19:04:37.121Z,29.47
2017-09-23T19:07:03.776Z,27.33
2017-09-23T19:09:30.420Z,28.93
2017-09-23T19:11:57.107Z,25.00
2017-09-23T19:14:23.706Z,25.43
2017-09-23T19:16:50.351Z,27.27
2017-09-23T19:19:17.850Z,26.80
2017-09-23T19:21:44.496Z,28.53
2017-09-23T19:24:11.150Z,26.87
2017-09-23T19:26:37.819Z,29.37
2017-09-23T19:29:04.457Z,32.40
2017-09-23T19:31:31.117Z,31.40
2017-09-23T19:33:57.745Z,23.27
2017-09-23T19:36:24.395Z,23.60
2017-09-23T19:38:51.059Z,28.03
2017-09-23T19:41:18.629Z,26.90
2017-09-23T19:43:45.290Z,23.90
2017-09-23T19:46:11.917Z,27.23
2017-09-23T19:48:38.558Z,25.50
2017-09-23T19:51:05.196Z,28.67
2017-09-23T19:53:31.826Z,27.07
2017-09-23T19:55:58.486Z,35.93
2017-09-23T19:58:25.116Z,34.60
2017-09-23T20:00:51.730Z,29.90
2017-09-23T20:03:18.388Z,26.53
2017-09-23T20:05:45.016Z,25.03
2017-09-23T20:08:11.637Z,23.13
2017-09-23T20:10:38.283Z,24.57
2017-09-23T20:13:04.912Z,22.30
2017-09-23T20:15:31.563Z,23.20
2017-09-23T20:17:58.199Z,25.47
2017-09-23T20:20:24.856Z,23.63
2017-09-23T20:22:51.505Z,22.97
2017-09-23T20:25:18.148Z,28.80
2017-09-23T20:27:44.809Z,27.03
2017-09-23T20:30:11.446Z,29.50
2017-09-23T20:32:38.076Z,27.43
2017-09-23T20:35:07.441Z,29.33
2017-09-23T20:37:34.997Z,31.03
2017-09-23T20:40:01.644Z,28.43
2017-09-23T20:42:28.271Z,29.17
2017-09-23T20:44:54.934Z,22.97
2017-09-23T20:47:21.573Z,26.10
2017-09-23T20:49:48.212Z,23.23
2017-09-23T20:52:15.083Z,22.10
2017-09-23T20:54:42.220Z,27.33
2017-09-23T20:57:08.932Z,24.30
2017-09-23T20:59:35.563Z,25.50
2017-09-23T21:02:02.256Z,23.93
2017-09-23T21:04:29.053Z,22.60
2017-09-23T21:06:55.699Z,23.90
2017-09-23T21:09:22.674Z,27.43
2017-09-23T21:11:49.344Z,22.37
2017-09-23T21:14:16.198Z,24.63
2017-09-23T21:16:42.838Z,25.40
2017-09-23T21:19:09.483Z,23.87
2017-09-23T21:21:36.155Z,29.90
2017-09-23T21:24:03.191Z,28.70
2017-09-23T21:26:29.880Z,26.33
2017-09-23T21:28:56.521Z,31.40
2017-09-23T21:31:23.171Z,27.70
2017-09-23T21:33:49.825Z,25.70
2017-09-23T21:36:16.484Z,26.10
2017-09-23T21:38:43.142Z,30.50
2017-09-23T21:41:09.760Z,26.30
2017-09-23T21:43:36.391Z,23.97
2017-09-23T21:46:03.030Z,24.70
2017-09-23T21:48:29.659Z,22.57
2017-09-23T21:50:56.322Z,21.97
2017-09-23T21:53:22.962Z,19.50
2017-09-23T21:55:49.600Z,20.83
2017-09-23T21:58:16.239Z,22.30
2017-09-23T22:00:42.898Z,23.53
2017-09-23T22:03:09.544Z,25.73
2017-09-23T22:05:36.167Z,26.90
2017-09-23T22:08:02.814Z,28.50
2017-09-23T22:10:29.467Z,27.07
2017-09-23T22:12:56.094Z,24.73
2017-09-23T22:15:22.750Z,27.17
2017-09-23T22:17:49.379Z,23.73
2017-09-23T22:20:16.056Z,24.43
2017-09-23T22:22:42.683Z,26.27
2017-09-23T22:25:09.338Z,28.00
2017-09-23T22:27:38.954Z,25.23
2017-09-23T22:30:05.586Z,29.57
2017-09-23T22:32:32.224Z,31.27
2017-09-23T22:34:58.899Z,27.50
2017-09-23T22:37:25.548Z,25.90
2017-09-23T22:39:52.207Z,24.40
2017-09-23T22:42:18.857Z,23.47
2017-09-23T22:44:45.507Z,24.87
2017-09-23T22:47:12.134Z,24.10
2017-09-23T22:49:38.762Z,23.57
2017-09-23T22:52:05.406Z,32.37
2017-09-23T22:54:32.039Z,36.77
2017-09-23T22:56:58.677Z,23.17
2017-09-23T22:59:25.303Z,18.30
2017-09-23T23:01:51.952Z,23.30
2017-09-23T23:04:18.595Z,24.07
2017-09-23T23:06:45.248Z,24.70
2017-09-23T23:09:11.895Z,25.97
2017-09-23T23:11:38.498Z,26.70
2017-09-23T23:14:05.162Z,26.40
2017-09-23T23:16:31.801Z,29.20
2017-09-23T23:18:58.451Z,34.03
2017-09-23T23:21:25.110Z,29.33
2017-09-23T23:23:51.719Z,25.27
2017-09-23T23:26:18.378Z,23.37
2017-09-23T23:28:45.002Z,24.30
2017-09-23T23:31:11.622Z,26.83
2017-09-23T23:33:38.860Z,27.27
2017-09-23T23:36:05.471Z,31.90
2017-09-23T23:38:32.107Z,31.47
2017-09-23T23:40:58.768Z,29.20
2017-09-23T23:43:25.412Z,27.47
2017-09-23T23:45:52.034Z,28.70
2017-09-23T23:48:18.659Z,29.87
2017-09-23T23:50:45.307Z,25.27
2017-09-23T23:53:11.919Z,28.93
2017-09-23T23:55:38.553Z,29.17
2017-09-23T23:58:05.177Z,27.03
